Orienta, Oklahoma
Current Conditions -  °F | °C
As of 5:15 AM on Thursday 23 Oct 2014 (Local Time) from KJWG Reporting Station
Broken Clouds Broken Clouds  
Wind Chill: 16°   Ceiling: 4600
Heat Index: 16°   Visibility: 7mi
Dew Point: 16°   Wind: 5mph
Humidity: 100%   Direction: 170°S
Pressure: 30.09"   Gusts: NA
Location:  36.2837°N, 98.6091°W
Report Text: KJWG 231015Z AUTO 17004KT 7SM BKN046 16/16 A3009 RMK AO2 T01610161
Loading
Personal Weather Stations






























Interactive Weather Map
Tropical Storm Tracking
New forecast layout! Learn more

10-Day Weather Forecast

Advertisements
Track Severe Weather on mobile